Time;durP1;ratioP1;P1;durP2;ratioP2;P2;SDS_P1;SDS_P2;PMS_P1;PMS_P2;Temp;Humidity;BMP_temperature;BMP_pressure;BME280_temperature;BME280_humidity;BME280_pressure;Samples;Min_cycle;Max_cycle;Signal;HPM_P1;HPM_P2
2022/01/04 00:02:05;;;;;;;1.77;1.60;;;;;;;7.87;76.83;99833.28;5046489;28;20122;-65
2022/01/04 00:04:32;;;;;;;3.88;1.35;;;;;;;7.80;76.93;99819.72;5038338;28;20080;-65
2022/01/04 00:06:59;;;;;;;5.38;1.67;;;;;;;7.80;77.03;99824.09;5032845;28;20071;-65
2022/01/04 00:09:25;;;;;;;3.38;1.48;;;;;;;8.04;76.10;99820.16;5042942;28;20458;-65
2022/01/04 00:13:21;;;;;;;6.18;2.00;;;;;;;7.76;77.21;99825.22;5030521;28;20049;-65
2022/01/04 00:14:46;;;;;;;2.78;1.85;;;;;;;7.91;77.02;99821.75;5031483;28;20072;-65
2022/01/04 00:17:12;;;;;;;2.33;1.60;;;;;;;8.01;76.60;99817.72;5030329;28;20119;-65
2022/01/04 00:19:39;;;;;;;1.58;1.27;;;;;;;8.12;76.27;99817.13;5038626;28;20543;-65
2022/01/04 00:22:08;;;;;;;2.35;1.35;;;;;;;8.18;76.07;99811.53;5046061;28;20065;-65
2022/01/04 00:24:34;;;;;;;4.28;1.58;;;;;;;8.21;75.76;99803.53;5050491;28;20522;-65
2022/01/04 00:27:00;;;;;;;4.20;1.60;;;;;;;8.30;75.61;99800.44;5044913;28;20073;-65
2022/01/04 00:29:27;;;;;;;2.03;1.38;;;;;;;8.26;75.50;99799.72;5044625;28;20090;-65
2022/01/04 00:31:55;;;;;;;1.70;1.05;;;;;;;8.23;75.87;99792.09;5047477;28;20103;-64
2022/01/04 00:34:21;;;;;;;1.48;1.00;;;;;;;8.09;76.24;99784.16;5031558;28;21215;-64
2022/01/04 00:36:47;;;;;;;5.70;1.40;;;;;;;7.97;76.76;99784.03;5027496;28;20081;-64
2022/01/04 00:39:14;;;;;;;7.28;2.05;;;;;;;7.97;77.19;99784.03;5039903;28;20111;-65
2022/01/04 00:41:40;;;;;;;1.88;1.48;;;;;;;7.95;77.15;99776.28;5041137;28;20077;-65
2022/01/04 00:44:06;;;;;;;1.30;1.20;;;;;;;7.76;77.91;99778.25;5046962;28;20049;-65
2022/01/04 00:46:33;;;;;;;3.95;1.95;;;;;;;8.01;76.92;99769.88;5049137;28;20064;-65
2022/01/04 00:49:10;;;;;;;4.13;1.40;;;;;;;7.75;78.31;99766.13;5047981;28;20061;-65
2022/01/04 00:51:37;;;;;;;4.78;1.40;;;;;;;7.67;78.68;99768.31;5044648;28;20183;-65
2022/01/04 00:54:03;;;;;;;1.55;1.40;;;;;;;7.88;77.88;99766.25;5049578;28;20049;-65
2022/01/04 00:56:29;;;;;;;2.47;1.50;;;;;;;7.87;77.89;99759.38;5047863;28;20515;-65
2022/01/04 00:58:56;;;;;;;3.65;1.60;;;;;;;8.15;77.11;99755.13;5047285;28;20126;-65
2022/01/04 01:01:22;;;;;;;3.13;1.73;;;;;;;8.16;77.14;99763.78;5042850;28;20095;-65
2022/01/04 01:03:49;;;;;;;3.22;1.55;;;;;;;8.33;76.25;99758.47;5049598;28;20072;-65
2022/01/04 01:06:18;;;;;;;1.85;1.35;;;;;;;8.14;76.93;99748.19;5044400;28;20127;-65
2022/01/04 01:08:44;;;;;;;1.38;1.23;;;;;;;8.37;76.20;99739.06;5049233;28;20049;-64
2022/01/04 01:11:11;;;;;;;3.55;1.58;;;;;;;8.49;75.76;99737.53;5049367;28;20073;-65
2022/01/04 01:13:38;;;;;;;2.10;1.40;;;;;;;8.45;75.60;99736.84;5044973;28;20048;-65
2022/01/04 01:16:05;;;;;;;2.35;1.42;;;;;;;8.23;76.40;99733.78;5049945;28;20051;-65
2022/01/04 01:18:32;;;;;;;1.92;1.20;;;;;;;8.54;75.26;99725.00;5049442;28;20080;-65
2022/01/04 01:20:59;;;;;;;1.38;1.23;;;;;;;8.89;74.11;99723.75;5045371;28;20064;-65
2022/01/04 01:23:27;;;;;;;2.17;1.33;;;;;;;8.91;73.56;99721.88;5048778;28;20118;-65
2022/01/04 01:25:53;;;;;;;1.52;1.40;;;;;;;8.98;73.65;99717.94;5040159;28;20068;-65
2022/01/04 01:28:20;;;;;;;1.40;1.23;;;;;;;9.11;72.90;99710.19;5048362;28;20240;-65
2022/01/04 01:30:46;;;;;;;2.40;1.48;;;;;;;8.76;74.50;99705.34;5047512;28;20045;-65
2022/01/04 01:33:13;;;;;;;4.63;1.35;;;;;;;8.24;76.15;99701.53;5043320;28;20562;-65
2022/01/04 01:35:40;;;;;;;4.68;1.67;;;;;;;8.22;76.55;99698.16;5033017;28;20049;-65
2022/01/04 01:38:09;;;;;;;3.15;1.77;;;;;;;8.17;77.32;99697.56;5030598;28;20140;-65
2022/01/04 01:40:37;;;;;;;2.72;1.35;;;;;;;8.38;76.49;99687.69;5043061;28;20076;-65
2022/01/04 01:43:04;;;;;;;1.67;1.35;;;;;;;8.45;76.16;99678.53;5048850;28;20444;-65
2022/01/04 01:45:31;;;;;;;1.92;1.45;;;;;;;8.53;75.83;99682.38;5047865;28;20045;-65
2022/01/04 01:47:57;;;;;;;1.92;1.40;;;;;;;8.14;77.52;99684.69;5047903;28;20065;-65
2022/01/04 01:50:24;;;;;;;3.17;1.55;;;;;;;8.39;77.05;99673.69;5048077;28;20068;-65
2022/01/04 01:52:51;;;;;;;4.32;1.63;;;;;;;8.52;76.49;99670.25;5048244;28;20169;-65
2022/01/04 01:55:19;;;;;;;4.88;1.88;;;;;;;8.31;77.39;99661.09;5040897;28;20123;-65
2022/01/04 01:57:48;;;;;;;2.08;1.50;;;;;;;8.42;77.27;99647.38;5028407;28;20088;-65
2022/01/04 02:00:17;;;;;;;2.20;1.40;;;;;;;8.50;76.86;99650.38;5043952;28;20049;-65
2022/01/04 02:02:44;;;;;;;2.85;1.40;;;;;;;8.28;77.93;99649.03;5048081;28;20076;-65
2022/01/04 02:05:11;;;;;;;4.35;1.70;;;;;;;8.21;78.10;99650.28;5043745;28;20103;-65
2022/01/04 02:07:39;;;;;;;1.70;1.60;;;;;;;8.39;77.68;99652.81;5047768;28;20103;-65
2022/01/04 02:10:07;;;;;;;2.95;1.65;;;;;;;8.42;77.78;99650.84;5046871;28;20544;-65
2022/01/04 02:12:36;;;;;;;4.22;1.88;;;;;;;8.30;77.86;99647.19;5048200;28;20053;-65
2022/01/04 02:15:06;;;;;;;5.40;1.90;;;;;;;8.30;78.26;99643.72;5048055;28;20523;-65
2022/01/04 02:17:32;;;;;;;4.00;2.13;;;;;;;8.23;78.65;99632.78;5048019;28;20085;-65
2022/01/04 02:20:01;;;;;;;2.88;2.05;;;;;;;8.28;78.25;99625.53;5045709;28;20146;-65
2022/01/04 02:22:28;;;;;;;4.05;1.73;;;;;;;8.56;77.57;99618.66;5044953;28;20416;-65
2022/01/04 02:24:55;;;;;;;3.70;2.20;;;;;;;8.16;79.08;99614.97;5047834;28;20064;-65
2022/01/04 02:27:22;;;;;;;5.85;2.10;;;;;;;8.30;78.82;99613.22;5041375;28;20457;-64
2022/01/04 02:29:49;;;;;;;2.20;2.00;;;;;;;8.47;77.51;99609.59;5049055;28;20045;-64
2022/01/04 02:32:15;;;;;;;4.20;2.30;;;;;;;8.66;77.17;99615.38;5048171;28;20049;-64
2022/01/04 02:34:47;;;;;;;3.28;2.38;;;;;;;8.69;76.95;99609.94;5049663;28;20343;-64
2022/01/04 02:37:18;;;;;;;3.78;2.65;;;;;;;8.49;77.65;99612.97;5046429;28;20489;-64
2022/01/04 02:39:45;;;;;;;6.25;2.60;;;;;;;8.61;77.32;99611.38;5049469;28;20501;-64
2022/01/04 02:42:11;;;;;;;5.63;3.15;;;;;;;8.59;77.23;99601.00;5034621;28;20041;-64
2022/01/04 02:44:37;;;;;;;5.18;2.50;;;;;;;8.39;78.57;99600.56;5049498;28;20053;-64
2022/01/04 02:47:04;;;;;;;7.38;4.28;;;;;;;8.75;76.90;99604.38;5046514;28;20504;-64
2022/01/04 02:49:31;;;;;;;5.57;3.58;;;;;;;8.97;76.05;99606.47;5049311;28;20071;-64
2022/01/04 02:51:57;;;;;;;8.50;3.65;;;;;;;8.99;75.72;99601.13;5048817;28;20076;-64
2022/01/04 02:54:25;;;;;;;5.32;3.38;;;;;;;8.54;77.99;99589.16;5046890;28;20065;-64
2022/01/04 02:56:51;;;;;;;10.48;3.67;;;;;;;8.83;76.82;99585.59;5048453;28;20049;-65
2022/01/04 02:59:18;;;;;;;4.25;3.13;;;;;;;8.95;76.02;99583.94;5042035;28;20100;-64
2022/01/04 03:01:44;;;;;;;6.65;4.18;;;;;;;8.81;76.71;99587.44;5045414;28;20077;-64
2022/01/04 03:04:11;;;;;;;10.20;5.78;;;;;;;8.58;77.93;99580.19;5047760;28;20091;-64
2022/01/04 03:06:38;;;;;;;8.15;4.00;;;;;;;8.73;77.48;99582.69;5047536;28;20068;-64
2022/01/04 03:09:06;;;;;;;6.60;4.20;;;;;;;8.13;79.19;99570.75;5047957;28;20489;-64
2022/01/04 03:11:34;;;;;;;6.03;3.63;;;;;;;8.16;79.59;99565.34;5046802;28;20075;-64
2022/01/04 03:14:01;;;;;;;6.90;3.80;;;;;;;8.48;78.60;99555.56;5046799;28;20044;-64
2022/01/04 03:16:27;;;;;;;4.88;4.00;;;;;;;8.46;78.33;99552.22;5046063;28;20103;-64
2022/01/04 03:19:05;;;;;;;8.05;3.80;;;;;;;8.60;78.12;99549.59;5045602;28;20496;-64
2022/01/04 03:21:33;;;;;;;7.30;4.32;;;;;;;8.26;79.60;99556.88;5046714;28;20206;-64
2022/01/04 03:23:59;;;;;;;6.43;4.38;;;;;;;8.38;78.92;99552.69;5045628;28;20083;-64
2022/01/04 03:26:26;;;;;;;6.18;4.00;;;;;;;8.50;78.56;99548.50;5046475;28;20072;-64
2022/01/04 03:28:54;;;;;;;10.90;4.70;;;;;;;8.50;77.71;99528.41;5036202;28;20122;-64
2022/01/04 03:31:20;;;;;;;5.25;3.63;;;;;;;8.75;76.77;99531.19;5045565;28;20142;-65
2022/01/04 03:33:47;;;;;;;9.93;4.38;;;;;;;8.65;77.64;99534.44;5046341;28;20154;-64
2022/01/04 03:36:14;;;;;;;8.43;4.45;;;;;;;8.42;78.82;99524.63;5042244;28;20077;-64
2022/01/04 03:38:41;;;;;;;8.93;4.22;;;;;;;8.04;80.33;99529.53;5045484;28;20053;-64
2022/01/04 03:41:08;;;;;;;6.25;4.18;;;;;;;8.15;80.24;99509.69;5045288;28;20069;-64
2022/01/04 03:43:37;;;;;;;8.70;4.78;;;;;;;8.22;79.35;99515.34;5044734;28;20049;-64
2022/01/04 03:46:05;;;;;;;5.28;3.90;;;;;;;8.32;79.35;99508.66;5047529;28;20127;-65
2022/01/04 03:48:31;;;;;;;8.50;3.85;;;;;;;8.60;78.47;99499.94;5047278;28;20091;-64
2022/01/04 03:50:58;;;;;;;10.60;4.88;;;;;;;8.76;77.42;99493.63;5044682;28;20073;-64
2022/01/04 03:53:24;;;;;;;7.00;4.43;;;;;;;8.90;76.61;99486.72;5013244;28;989808;-64
2022/01/04 03:55:50;;;;;;;13.45;4.75;;;;;;;8.86;76.97;99486.06;5047479;28;20072;-64
2022/01/04 03:58:17;;;;;;;10.23;4.32;;;;;;;8.84;76.77;99471.41;5047270;28;20049;-64
2022/01/04 04:00:43;;;;;;;7.53;5.00;;;;;;;8.95;76.54;99464.53;5046121;28;20528;-64
2022/01/04 04:03:11;;;;;;;13.38;4.28;;;;;;;8.93;76.76;99470.81;5047436;28;20094;-64
2022/01/04 04:05:37;;;;;;;9.43;4.80;;;;;;;8.83;76.90;99469.75;5044803;28;20052;-64
2022/01/04 04:08:04;;;;;;;10.30;4.93;;;;;;;9.03;76.33;99471.88;5046025;28;20045;-64
2022/01/04 04:10:30;;;;;;;8.63;5.13;;;;;;;9.02;76.57;99462.34;5039989;28;20065;-64
2022/01/04 04:12:57;;;;;;;9.50;5.43;;;;;;;8.88;77.35;99471.09;5046717;28;20398;-64
2022/01/04 04:15:23;;;;;;;11.02;5.35;;;;;;;8.69;78.04;99461.00;5045188;28;20372;-64
2022/01/04 04:17:49;;;;;;;11.07;5.63;;;;;;;8.93;77.37;99460.34;5046759;28;20127;-64
2022/01/04 04:20:17;;;;;;;11.60;5.40;;;;;;;9.10;76.52;99458.31;5044482;28;20550;-64
2022/01/04 04:22:43;;;;;;;10.75;5.50;;;;;;;8.94;77.12;99451.59;5042692;28;20114;-64
2022/01/04 04:25:10;;;;;;;9.50;4.93;;;;;;;8.52;78.79;99455.19;5046691;28;20519;-64
2022/01/04 04:27:36;;;;;;;13.15;5.47;;;;;;;8.37;79.07;99450.91;5048026;28;20073;-64
2022/01/04 04:30:04;;;;;;;12.80;6.25;;;;;;;8.62;78.84;99441.44;5046231;28;20036;-64
2022/01/04 04:32:30;;;;;;;8.95;6.18;;;;;;;8.60;78.81;99432.84;5045570;28;20059;-64
2022/01/04 04:34:58;;;;;;;13.90;5.55;;;;;;;8.67;78.61;99428.06;5046321;28;20127;-64
2022/01/04 04:37:26;;;;;;;11.10;6.13;;;;;;;8.89;77.83;99412.66;5047052;28;20519;-64
2022/01/04 04:39:52;;;;;;;14.32;5.60;;;;;;;8.73;78.08;99418.06;5038658;28;20051;-64
2022/01/04 04:42:19;;;;;;;8.02;5.78;;;;;;;8.65;78.51;99428.16;5044568;28;20110;-64
2022/01/04 04:44:46;;;;;;;12.48;6.22;;;;;;;8.40;80.28;99425.44;5042227;28;20049;-64
2022/01/04 04:47:12;;;;;;;11.75;6.03;;;;;;;8.25;80.29;99421.16;5046216;28;20041;-64
2022/01/04 04:49:39;;;;;;;12.50;5.88;;;;;;;8.38;80.19;99408.19;5043031;28;20053;-64
2022/01/04 04:52:06;;;;;;;14.45;6.43;;;;;;;8.32;80.37;99407.66;5043642;28;20045;-64
2022/01/04 04:54:33;;;;;;;12.48;6.53;;;;;;;8.47;80.50;99404.97;5049336;28;20072;-64
2022/01/04 04:57:00;;;;;;;12.95;7.18;;;;;;;8.61;79.27;99397.94;5038978;28;20065;-64
2022/01/04 04:59:26;;;;;;;15.27;6.10;;;;;;;8.50;79.29;99400.41;5050619;28;20061;-63
2022/01/04 05:01:53;;;;;;;11.27;6.10;;;;;;;8.41;80.00;99401.00;5043903;28;20128;-64
2022/01/04 05:04:19;;;;;;;12.10;6.57;;;;;;;8.73;78.81;99389.31;5048739;28;20493;-64
2022/01/04 05:06:46;;;;;;;16.63;6.40;;;;;;;8.50;79.83;99381.31;5050676;28;20080;-64
2022/01/04 05:09:13;;;;;;;15.60;7.40;;;;;;;8.67;79.15;99381.88;5048584;28;20049;-64
2022/01/04 05:11:40;;;;;;;13.77;6.45;;;;;;;8.47;79.34;99379.72;5046043;28;20044;-64
2022/01/04 05:14:07;;;;;;;12.27;6.95;;;;;;;8.12;81.00;99378.47;5049544;28;20121;-64
2022/01/04 05:16:33;;;;;;;15.68;7.55;;;;;;;7.98;82.09;99374.13;5050895;28;20579;-64
2022/01/04 05:18:59;;;;;;;11.30;6.75;;;;;;;7.91;82.46;99370.22;5046172;28;20087;-64
2022/01/04 05:21:26;;;;;;;13.55;7.15;;;;;;;8.18;81.20;99367.66;5049524;28;20068;-64
2022/01/04 05:23:54;;;;;;;10.60;6.43;;;;;;;8.00;81.70;99358.38;5048618;28;20045;-64
2022/01/04 05:26:20;;;;;;;9.25;6.72;;;;;;;8.05;82.13;99354.56;5046433;28;20041;-64
2022/01/04 05:28:48;;;;;;;10.20;6.72;;;;;;;8.26;80.99;99337.50;5045126;28;20106;-64
2022/01/04 05:31:14;;;;;;;11.88;7.10;;;;;;;7.81;82.74;99338.66;5044562;28;20068;-64
2022/01/04 05:33:41;;;;;;;11.95;7.18;;;;;;;7.97;82.33;99332.47;5047138;28;20103;-65
2022/01/04 05:36:08;;;;;;;15.32;6.97;;;;;;;7.82;82.79;99329.88;5044864;28;20068;-64
2022/01/04 05:38:34;;;;;;;17.38;6.78;;;;;;;7.99;82.16;99320.13;5049451;28;20067;-64
2022/01/04 05:41:01;;;;;;;12.75;6.63;;;;;;;7.96;81.99;99315.13;5047591;28;20065;-64
2022/01/04 05:43:27;;;;;;;15.88;7.10;;;;;;;8.19;81.13;99309.28;5048958;28;20091;-64
2022/01/04 05:45:55;;;;;;;13.57;6.65;;;;;;;7.98;81.61;99305.44;5044992;28;20068;-64
2022/01/04 05:48:21;;;;;;;11.68;6.53;;;;;;;8.25;80.91;99308.88;5048452;28;20437;-64
2022/01/04 05:50:48;;;;;;;10.30;6.43;;;;;;;7.91;81.90;99307.56;5048916;28;20072;-65
2022/01/04 05:53:14;;;;;;;14.60;6.45;;;;;;;7.91;81.67;99310.19;5049434;28;20554;-64
2022/01/04 05:55:41;;;;;;;8.80;6.25;;;;;;;7.79;82.30;99298.78;5048842;28;20076;-64
2022/01/04 05:58:07;;;;;;;12.88;6.28;;;;;;;7.70;81.86;99294.13;5050376;28;20064;-64
2022/01/04 06:00:34;;;;;;;14.00;5.78;;;;;;;7.75;82.05;99299.91;5047355;28;20084;-64
2022/01/04 06:03:01;;;;;;;9.32;6.07;;;;;;;7.74;82.01;99285.16;5049456;28;20060;-64
2022/01/04 06:05:28;;;;;;;9.93;5.25;;;;;;;7.77;81.64;99289.34;5047542;28;20037;-66
2022/01/04 06:07:55;;;;;;;8.75;5.10;;;;;;;7.93;81.04;99273.56;5049313;28;20126;-66
2022/01/04 06:10:21;;;;;;;6.82;3.97;;;;;;;7.89;80.66;99270.31;5048664;28;20076;-66
2022/01/04 06:15:32;;;;;;;5.10;3.00;;;;;;;7.86;80.46;99267.06;5046985;28;20051;-66
2022/01/04 06:17:58;;;;;;;7.97;3.25;;;;;;;7.94;79.61;99270.03;5049378;28;20037;-65
2022/01/04 06:20:27;;;;;;;4.85;2.58;;;;;;;7.86;79.87;99269.66;5048935;28;20098;-65
2022/01/04 06:22:54;;;;;;;3.35;2.08;;;;;;;7.88;79.91;99265.19;5048104;28;20056;-66
2022/01/04 06:25:22;;;;;;;5.47;2.22;;;;;;;8.25;79.01;99260.09;5047932;28;20480;-65
2022/01/04 06:27:51;;;;;;;2.13;1.95;;;;;;;8.11;78.85;99267.16;5045320;28;20134;-65
2022/01/04 06:30:19;;;;;;;5.55;2.08;;;;;;;8.12;78.74;99242.72;5044092;28;20072;-65
2022/01/04 06:32:47;;;;;;;9.20;3.38;;;;;;;7.57;81.09;99251.50;5048348;28;20548;-65
2022/01/04 06:35:14;;;;;;;8.73;4.15;;;;;;;7.57;81.46;99256.72;5049623;28;20067;-66
2022/01/04 06:37:43;;;;;;;5.10;3.08;;;;;;;7.86;80.30;99246.19;5047859;28;20069;-66
2022/01/04 06:40:11;;;;;;;4.45;2.17;;;;;;;7.57;80.76;99251.50;5043282;28;20041;-66
2022/01/04 06:42:38;;;;;;;2.78;1.80;;;;;;;7.80;80.28;99245.63;5048901;28;20094;-65
2022/01/04 06:45:05;;;;;;;1.63;1.52;;;;;;;7.86;80.30;99252.25;5047887;28;20497;-65
2022/01/04 06:47:32;;;;;;;6.00;1.73;;;;;;;8.01;79.16;99251.25;5042994;28;20094;-65
2022/01/04 06:49:58;;;;;;;4.97;1.70;;;;;;;8.10;78.97;99245.44;5046164;28;20069;-65
2022/01/04 06:52:24;;;;;;;3.40;3.10;;;;;;;7.92;79.25;99243.16;5045047;28;20044;-65
2022/01/04 06:54:52;;;;;;;4.15;1.58;;;;;;;7.73;80.39;99257.41;5042214;28;20839;-65
2022/01/04 06:57:18;;;;;;;1.70;1.60;;;;;;;7.75;80.05;99252.94;5044878;28;20072;-65
2022/01/04 06:59:45;;;;;;;1.48;1.25;;;;;;;7.71;80.30;99261.88;5045182;28;20053;-65
2022/01/04 07:02:11;;;;;;;1.98;1.30;;;;;;;7.89;79.58;99256.41;5045367;28;20065;-65
2022/01/04 07:04:37;;;;;;;1.73;1.10;;;;;;;8.04;79.38;99265.88;5045243;28;20044;-66
2022/01/04 07:07:04;;;;;;;1.23;1.13;;;;;;;8.03;78.86;99254.59;5042022;28;20061;-65
2022/01/04 07:09:30;;;;;;;1.05;0.98;;;;;;;7.91;79.33;99247.53;5045048;28;20497;-65
2022/01/04 07:11:58;;;;;;;3.60;2.70;;;;;;;7.89;79.65;99239.00;5041176;28;20072;-65
2022/01/04 07:14:25;;;;;;;2.40;2.20;;;;;;;7.98;79.23;99242.78;5045212;28;20051;-65
2022/01/04 07:16:51;;;;;;;2.45;1.58;;;;;;;8.10;78.60;99249.81;5044282;28;20139;-66
2022/01/04 07:19:17;;;;;;;2.50;0.70;;;;;;;8.12;78.39;99245.34;5044018;28;20095;-65
2022/01/04 07:21:44;;;;;;;1.33;0.88;;;;;;;8.05;78.67;99251.91;5045179;28;20448;-65
2022/01/04 07:24:10;;;;;;;0.98;0.82;;;;;;;7.97;79.12;99249.78;5045109;28;20239;-65
2022/01/04 07:26:36;;;;;;;1.23;1.08;;;;;;;8.15;78.75;99242.53;5045762;28;20505;-66
2022/01/04 07:29:04;;;;;;;0.93;0.93;;;;;;;8.02;78.58;99241.66;5044532;28;20103;-66
2022/01/04 07:31:31;;;;;;;2.75;0.80;;;;;;;7.66;80.60;99230.03;5045193;28;20118;-66
2022/01/04 07:33:57;;;;;;;3.63;1.20;;;;;;;7.38;81.98;99227.50;5044132;28;20566;-66
2022/01/04 07:36:23;;;;;;;1.27;1.17;;;;;;;7.31;82.46;99218.38;5037047;28;20103;-66
2022/01/04 07:38:50;;;;;;;2.35;1.70;;;;;;;7.59;81.90;99207.88;5042161;28;20052;-67
2022/01/04 07:41:16;;;;;;;2.45;1.40;;;;;;;7.64;81.46;99210.19;5043081;28;20459;-66
2022/01/04 07:43:42;;;;;;;2.13;1.40;;;;;;;7.66;81.61;99214.38;5044432;28;20500;-66
2022/01/04 07:46:10;;;;;;;12.73;1.92;;;;;;;7.68;82.12;99216.91;5030440;28;20041;-66
2022/01/04 07:48:37;;;;;;;2.63;1.90;;;;;;;7.98;81.06;99227.13;5040955;28;20073;-67
2022/01/04 07:51:03;;;;;;;1.85;1.45;;;;;;;8.06;80.62;99217.00;5037739;28;20040;-67
2022/01/04 07:53:31;;;;;;;2.60;1.50;;;;;;;8.07;81.14;99218.69;5043115;28;20059;-66
2022/01/04 07:55:58;;;;;;;3.20;1.95;;;;;;;7.88;81.48;99210.38;5043700;28;20052;-66
2022/01/04 07:58:25;;;;;;;5.22;1.80;;;;;;;7.67;82.88;99213.44;5043712;28;20493;-66
2022/01/04 08:00:51;;;;;;;6.63;2.80;;;;;;;7.64;82.70;99213.66;5044829;28;20056;-66
2022/01/04 08:03:19;;;;;;;3.10;2.20;;;;;;;7.43;83.97;99208.97;5044229;28;20126;-66
2022/01/04 08:05:45;;;;;;;5.28;1.90;;;;;;;7.43;84.00;99191.50;5045338;28;20045;-66
2022/01/04 08:08:12;;;;;;;4.95;2.20;;;;;;;7.66;83.33;99198.72;5040076;28;20126;-66
2022/01/04 08:10:38;;;;;;;8.77;2.63;;;;;;;7.68;83.75;99185.59;5039132;28;20127;-66
2022/01/04 08:13:05;;;;;;;5.93;2.55;;;;;;;7.76;82.96;99178.91;5036351;28;20068;-66
2022/01/04 08:15:31;;;;;;;3.15;2.65;;;;;;;7.55;83.72;99176.88;5043349;28;20483;-66
2022/01/04 08:17:58;;;;;;;6.97;3.78;;;;;;;7.48;84.44;99168.59;5045572;28;20048;-66
2022/01/04 08:20:26;;;;;;;3.42;2.45;;;;;;;7.49;84.44;99167.69;5047499;28;20086;-66
2022/01/04 08:22:52;;;;;;;3.42;2.58;;;;;;;7.67;83.17;99161.28;5046742;28;20111;-66
2022/01/04 08:25:19;;;;;;;2.58;1.75;;;;;;;7.60;83.39;99167.81;5047059;28;20041;-66
2022/01/04 08:27:45;;;;;;;5.43;2.45;;;;;;;7.75;82.52;99166.84;5049143;28;20100;-66
2022/01/04 08:30:13;;;;;;;7.25;2.70;;;;;;;7.71;82.68;99162.75;5046700;28;20347;-66
2022/01/04 08:32:40;;;;;;;6.15;3.53;;;;;;;7.59;83.39;99158.31;5045953;28;20475;-66
2022/01/04 08:35:07;;;;;;;11.93;6.05;;;;;;;7.40;84.02;99162.19;5043825;28;20069;-65
2022/01/04 08:37:35;;;;;;;12.18;6.38;;;;;;;7.46;84.39;99159.22;5037863;28;20049;-65
2022/01/04 08:40:01;;;;;;;12.43;6.22;;;;;;;7.49;83.83;99159.00;5050699;28;20045;-65
2022/01/04 08:42:28;;;;;;;11.40;5.43;;;;;;;7.38;84.75;99170.13;5047585;28;20107;-65
2022/01/04 08:44:55;;;;;;;8.10;4.40;;;;;;;7.81;82.61;99162.97;5051882;28;20485;-65
2022/01/04 08:47:22;;;;;;;6.72;3.60;;;;;;;7.78;82.42;99161.41;5060756;28;20067;-65
2022/01/04 08:49:48;;;;;;;6.65;3.10;;;;;;;8.23;80.81;99169.75;5051721;28;20417;-65
2022/01/04 08:52:15;;;;;;;6.00;2.75;;;;;;;8.31;80.38;99163.09;5049576;28;20040;-65
2022/01/04 08:54:42;;;;;;;5.28;3.08;;;;;;;8.48;79.40;99163.75;5039113;28;20150;-65
2022/01/04 08:57:09;;;;;;;5.45;3.08;;;;;;;8.12;81.10;99162.66;5032231;28;20068;-65
2022/01/04 08:59:35;;;;;;;4.07;2.70;;;;;;;8.25;80.12;99162.63;5033642;28;20049;-66
2022/01/04 09:02:02;;;;;;;7.10;3.47;;;;;;;8.15;80.11;99156.38;5051772;28;20078;-64
2022/01/04 09:04:28;;;;;;;6.93;3.35;;;;;;;8.30;80.27;99156.22;5050099;28;20442;-64
2022/01/04 09:06:55;;;;;;;5.15;3.13;;;;;;;8.50;79.21;99162.69;5040415;28;20493;-66
2022/01/04 09:09:21;;;;;;;5.30;3.00;;;;;;;8.58;78.71;99152.56;5050731;28;20045;-66
2022/01/04 09:11:49;;;;;;;7.13;3.25;;;;;;;8.82;78.17;99154.41;5050800;28;20041;-64
2022/01/04 09:14:25;;;;;;;4.65;3.08;;;;;;;8.50;79.44;99149.63;5048419;28;20045;-65
2022/01/04 09:19:37;;;;;;;5.15;2.97;;;;;;;8.83;78.41;99136.03;5051869;28;20079;-65
2022/01/04 09:22:04;;;;;;;361.65;333.50;;;;;;;8.58;78.83;99121.19;5048853;28;20053;-65
2022/01/04 09:24:31;;;;;;;357.45;325.13;;;;;;;8.44;79.47;99118.72;5050665;28;20460;-65
2022/01/04 09:26:58;;;;;;;1999.90;999.90;;;;;;;8.55;79.65;99128.41;5041571;28;20046;-65
2022/01/04 09:29:25;;;;;;;1999.90;999.90;;;;;;;8.52;79.85;99134.69;5039117;28;20041;-65
2022/01/04 09:31:55;;;;;;;592.00;336.38;;;;;;;8.50;80.06;99133.94;5050733;28;20063;-66
2022/01/04 09:34:22;;;;;;;1032.07;530.72;;;;;;;8.56;79.50;99128.31;5050972;28;20427;-67
2022/01/04 09:36:48;;;;;;;64.57;61.47;;;;;;;8.23;81.00;99118.38;5050436;28;20045;-67
2022/01/04 09:39:18;;;;;;;56.90;54.10;;;;;;;8.40;80.48;99117.25;5050338;28;20068;-68
2022/01/04 09:41:45;;;;;;;50.35;48.00;;;;;;;8.20;81.73;99122.97;5047668;28;20071;-67
2022/01/04 09:44:14;;;;;;;50.92;48.63;;;;;;;7.95;82.60;99115.09;5050674;28;20456;-66
2022/01/04 09:46:42;;;;;;;49.33;47.03;;;;;;;8.22;81.84;99106.25;5050352;28;20523;-67
2022/01/04 09:49:10;;;;;;;50.80;48.40;;;;;;;8.37;81.10;99098.34;5050859;28;20497;-67
2022/01/04 09:51:39;;;;;;;55.58;53.17;;;;;;;8.11;81.85;99100.91;5048180;28;20065;-67
2022/01/04 09:54:06;;;;;;;59.42;56.92;;;;;;;8.09;82.23;99107.19;5050967;28;20094;-69
2022/01/04 09:56:32;;;;;;;59.72;57.22;;;;;;;8.27;81.86;99101.56;5048498;28;20098;-68
2022/01/04 09:58:59;;;;;;;55.58;53.20;;;;;;;7.77;83.91;99098.88;5051673;28;20103;-70
2022/01/04 10:01:33;;;;;;;57.63;55.15;;;;;;;7.87;83.83;99086.88;5045340;28;20045;-67
2022/01/04 10:04:01;;;;;;;60.88;57.85;;;;;;;7.82;83.70;99087.22;5031165;28;20053;-67
2022/01/04 10:06:27;;;;;;;59.92;57.30;;;;;;;7.94;83.95;99084.72;5037509;28;20106;-68
2022/01/04 10:08:56;;;;;;;54.75;52.05;;;;;;;8.17;82.67;99089.22;5050439;28;20555;-67
2022/01/04 10:11:32;;;;;;;54.80;52.30;;;;;;;7.82;83.64;99079.38;5049490;28;20051;-67
2022/01/04 10:14:00;;;;;;;63.70;59.92;;;;;;;7.61;84.58;99082.59;5042610;28;20091;-67
2022/01/04 10:16:28;;;;;;;50.90;48.53;;;;;;;7.84;84.53;99087.09;5047170;28;20049;-66
2022/01/04 10:18:55;;;;;;;48.75;46.70;;;;;;;7.73;84.71;99085.19;5030352;28;20049;-66
2022/01/04 10:21:21;;;;;;;1999.90;999.90;;;;;;;7.87;84.66;99076.44;5035260;28;20048;-67
2022/01/04 10:23:51;;;;;;;71.95;69.00;;;;;;;7.80;84.23;99072.56;5051178;28;20060;-67
2022/01/04 10:26:26;;;;;;;62.80;59.75;;;;;;;7.92;83.92;99074.38;5035875;28;20042;-67
2022/01/04 10:28:53;;;;;;;1999.90;999.90;;;;;;;7.65;85.62;99077.03;5030986;28;20183;-68
2022/01/04 10:31:19;;;;;;;1523.85;765.47;;;;;;;7.63;85.96;99062.44;5042751;28;20060;-68
2022/01/04 10:33:52;;;;;;;68.57;64.95;;;;;;;7.55;86.57;99065.56;5042475;28;20095;-69
2022/01/04 10:36:21;;;;;;;1999.90;999.90;;;;;;;7.86;85.38;99059.16;5046347;28;20075;-68
2022/01/04 10:38:50;;;;;;;88.25;84.05;;;;;;;7.57;86.77;99061.09;5047117;28;20045;-69
2022/01/04 10:41:23;;;;;;;610.15;434.23;;;;;;;7.75;86.70;99062.47;5047995;28;20052;-68
2022/01/04 10:43:51;;;;;;;1999.90;999.90;;;;;;;7.82;86.00;99073.34;5048773;28;20041;-67
2022/01/04 10:46:22;;;;;;;1081.70;576.30;;;;;;;8.01;84.94;99067.72;5048494;28;20045;-67
2022/01/04 10:48:51;;;;;;;1999.90;999.90;;;;;;;7.63;86.54;99075.47;5048438;28;20051;-67
2022/01/04 10:51:20;;;;;;;1999.90;999.90;;;;;;;7.62;86.58;99079.00;5041347;28;20095;-67
2022/01/04 10:53:49;;;;;;;1999.90;999.90;;;;;;;7.72;86.26;99073.09;5029369;28;20057;-67
2022/01/04 10:56:17;;;;;;;1999.90;999.90;;;;;;;7.91;85.65;99067.47;5044473;28;20041;-67
2022/01/04 10:58:46;;;;;;;1999.90;999.90;;;;;;;7.66;86.48;99072.66;5046699;28;20061;-66
2022/01/04 11:01:15;;;;;;;1999.90;999.90;;;;;;;7.71;86.67;99065.38;5043641;28;20045;-67
2022/01/04 11:03:43;;;;;;;1999.90;999.90;;;;;;;7.92;86.29;99053.50;5050089;28;20069;-67
2022/01/04 11:06:14;;;;;;;1999.90;999.90;;;;;;;7.86;85.72;99045.25;5043021;28;20118;-67
2022/01/04 11:08:42;;;;;;;1999.90;999.90;;;;;;;7.70;87.30;99038.44;5049926;28;20060;-68
2022/01/04 11:11:08;;;;;;;1999.90;999.90;;;;;;;7.66;86.60;99021.34;5048987;28;20069;-67
2022/01/04 11:13:35;;;;;;;1999.90;999.90;;;;;;;7.89;86.60;99026.78;5050015;28;20057;-68
2022/01/04 11:16:04;;;;;;;68.53;63.92;;;;;;;7.73;86.68;99032.19;5033806;28;20103;-68
2022/01/04 11:18:31;;;;;;;1999.90;999.90;;;;;;;8.09;86.14;99018.44;5028807;28;20517;-67
2022/01/04 11:20:59;;;;;;;771.40;503.90;;;;;;;8.22;84.97;99027.91;5041729;28;20111;-67
2022/01/04 11:23:29;;;;;;;382.77;359.73;;;;;;;8.08;85.97;99027.19;5046713;28;20543;-67
2022/01/04 11:25:58;;;;;;;629.45;591.88;;;;;;;7.97;86.20;99021.88;5046443;28;20053;-67
2022/01/04 11:28:25;;;;;;;1999.90;999.90;;;;;;;8.04;86.48;99018.75;5037068;28;20119;-67
2022/01/04 11:31:15;;;;;;;1999.90;999.90;;;;;;;7.65;87.56;99019.66;5042758;28;20145;-67
2022/01/04 11:33:49;;;;;;;1999.90;999.90;;;;;;;7.91;86.70;99009.25;5047435;28;20080;-67
2022/01/04 11:36:18;;;;;;;1999.90;999.90;;;;;;;7.97;86.56;98987.94;5047112;28;20041;-67
2022/01/04 11:38:46;;;;;;;1999.90;999.90;;;;;;;8.15;86.54;98971.00;5043354;28;20126;-67
2022/01/04 11:41:21;;;;;;;1999.90;999.90;;;;;;;8.22;85.53;98949.59;5046971;28;20044;-67